Time;durP1;ratioP1;P1;durP2;ratioP2;P2;SDS_P1;SDS_P2;PMS_P1;PMS_P2;Temp;Humidity;BMP_temperature;BMP_pressure;BME280_temperature;BME280_humidity;BME280_pressure;Samples;Min_cycle;Max_cycle;Signal;HPM_P1;HPM_P2
2022/08/18 00:01:23;;;;;;;9.05;5.55;;;18.20;99.90;;;;;;5102649;28;20040;-82
2022/08/18 00:03:51;;;;;;;14.13;5.68;;;18.10;99.90;;;;;;5098936;28;20514;-81
2022/08/18 00:06:27;;;;;;;7.13;4.97;;;18.00;99.90;;;;;;5097308;28;20047;-83
2022/08/18 00:09:01;;;;;;;6.95;6.25;;;17.90;99.90;;;;;;5087581;28;20050;-83
2022/08/18 00:11:32;;;;;;;7.90;5.85;;;17.90;99.90;;;;;;5097442;28;20051;-85
2022/08/18 00:14:41;;;;;;;7.65;6.82;;;17.90;99.90;;;;;;5097477;28;20048;-84
2022/08/18 00:17:09;;;;;;;8.97;5.10;;;17.80;99.90;;;;;;5089603;28;20055;-82
2022/08/18 00:19:37;;;;;;;12.07;5.95;;;17.70;99.90;;;;;;5081390;28;20047;-83
2022/08/18 00:22:17;;;;;;;24.92;6.35;;;17.80;99.90;;;;;;5070389;28;20051;-82
2022/08/18 00:24:46;;;;;;;;;;;17.70;99.90;;;;;;5079887;28;20040;-81
2022/08/18 00:27:20;;;;;;;7.28;5.82;;;17.80;99.90;;;;;;5088666;28;19920;-81
2022/08/18 00:29:52;;;;;;;8.40;5.80;;;17.80;99.90;;;;;;5097366;28;20515;-80
2022/08/18 00:32:23;;;;;;;6.95;5.63;;;17.70;99.90;;;;;;5069349;28;20044;-83
2022/08/18 00:34:52;;;;;;;8.18;6.70;;;17.70;99.90;;;;;;5103583;28;20488;-79
2022/08/18 00:37:22;;;;;;;7.88;6.68;;;17.70;99.90;;;;;;5104811;28;20054;-81
2022/08/18 00:39:52;;;;;;;7.25;6.10;;;17.70;99.90;;;;;;5104299;28;20039;-78
2022/08/18 00:42:26;;;;;;;8.07;6.32;;;17.70;99.90;;;;;;5103285;28;20480;-81
2022/08/18 00:45:03;;;;;;;7.43;6.60;;;17.80;99.90;;;;;;5088172;28;20039;-79
2022/08/18 00:47:31;;;;;;;11.82;7.72;;;17.70;99.90;;;;;;5082722;28;20492;-80
2022/08/18 00:50:14;;;;;;;9.73;6.00;;;17.70;99.90;;;;;;5079072;28;20048;-78
2022/08/18 00:52:48;;;;;;;8.90;5.78;;;17.70;99.90;;;;;;5062250;28;20043;-79
2022/08/18 00:55:18;;;;;;;8.45;6.28;;;17.70;99.90;;;;;;5101341;28;20063;-82
2022/08/18 00:57:49;;;;;;;11.45;6.47;;;17.70;99.90;;;;;;5082839;28;20054;-81
2022/08/18 01:00:17;;;;;;;6.57;5.88;;;17.80;99.90;;;;;;5086472;28;20181;-82
2022/08/18 01:02:50;;;;;;;8.27;6.32;;;17.70;99.90;;;;;;5085253;28;20063;-81
2022/08/18 01:05:32;;;;;;;8.40;6.57;;;17.70;99.90;;;;;;5074772;28;20048;-81
2022/08/18 01:08:01;;;;;;;7.45;6.18;;;17.70;99.90;;;;;;5107619;28;20051;-81
2022/08/18 01:10:32;;;;;;;7.07;5.80;;;17.70;99.90;;;;;;5086139;28;20055;-81
2022/08/18 01:13:00;;;;;;;14.13;6.78;;;17.70;99.90;;;;;;5095744;28;20066;-82
2022/08/18 01:15:32;;;;;;;6.75;6.07;;;17.70;99.90;;;;;;5107697;28;20035;-83
2022/08/18 01:24:07;;;;;;;6.75;5.75;;;17.90;99.90;;;;;;5092908;28;20063;-84
2022/08/18 01:26:38;;;;;;;5.38;4.85;;;17.80;99.90;;;;;;5099040;28;20055;-81
2022/08/18 01:29:12;;;;;;;5.72;4.82;;;17.90;99.90;;;;;;5090005;28;20058;-82
2022/08/18 01:31:55;;;;;;;5.28;4.78;;;17.80;99.90;;;;;;5104463;28;20050;-81
2022/08/18 01:34:26;;;;;;;6.65;5.22;;;17.80;99.90;;;;;;5102274;28;20055;-81
2022/08/18 01:36:55;;;;;;;6.60;5.82;;;17.90;99.90;;;;;;5065061;28;20457;-81
2022/08/18 01:39:23;;;;;;;6.07;5.35;;;17.90;99.90;;;;;;5087347;28;20069;-82
2022/08/18 01:42:13;;;;;;;6.18;5.57;;;17.90;99.90;;;;;;5099381;28;20051;-83
2022/08/18 01:44:43;;;;;;;10.77;5.13;;;17.90;99.90;;;;;;5109196;28;20039;-82
2022/08/18 01:47:11;;;;;;;4.97;4.45;;;17.90;99.90;;;;;;5107594;28;20285;-82
2022/08/18 01:49:42;;;;;;;6.28;5.53;;;17.90;99.90;;;;;;5081128;28;20070;-82
2022/08/18 01:52:16;;;;;;;5.97;4.63;;;17.80;99.90;;;;;;5102563;28;20052;-84
2022/08/18 01:54:45;;;;;;;5.88;5.30;;;17.80;99.90;;;;;;5091903;28;20052;-82
2022/08/18 01:57:16;;;;;;;6.32;5.03;;;17.90;99.90;;;;;;5104595;28;20416;-84
2022/08/18 01:59:44;;;;;;;10.52;5.28;;;17.90;99.90;;;;;;5110616;28;20044;-82
2022/08/18 02:02:17;;;;;;;6.18;4.95;;;17.80;99.90;;;;;;5111791;28;20404;-83
2022/08/18 02:04:46;;;;;;;11.20;4.80;;;17.70;99.90;;;;;;5110164;28;20507;-83
2022/08/18 02:07:14;;;;;;;10.38;4.43;;;17.70;99.90;;;;;;5098852;28;20046;-81
2022/08/18 02:09:43;;;;;;;4.70;4.25;;;17.70;99.90;;;;;;5106905;28;20047;-83
2022/08/18 02:12:40;;;;;;;9.55;5.88;;;17.60;99.90;;;;;;5090155;28;20055;-81
2022/08/18 02:15:11;;;;;;;5.25;4.75;;;17.60;99.90;;;;;;5091393;28;20390;-82
2022/08/18 02:17:41;;;;;;;5.95;5.05;;;17.60;99.90;;;;;;5103777;28;20039;-85
2022/08/18 02:20:12;;;;;;;6.45;4.75;;;17.50;99.90;;;;;;5097631;28;20405;-83
2022/08/18 02:22:40;;;;;;;6.75;6.00;;;17.50;99.90;;;;;;5044675;28;20044;-85
2022/08/18 02:25:09;;;;;;;6.07;4.97;;;17.50;99.90;;;;;;5110038;28;20794;-81
2022/08/18 02:27:37;;;;;;;5.45;4.72;;;17.50;99.90;;;;;;5110457;28;20479;-83
2022/08/18 02:30:10;;;;;;;9.02;4.95;;;17.50;99.90;;;;;;5079160;28;20063;-81
2022/08/18 02:32:38;;;;;;;6.25;5.22;;;17.50;99.90;;;;;;5112896;27;20051;-84
2022/08/18 02:35:07;;;;;;;6.18;5.07;;;17.50;99.90;;;;;;5097640;28;20043;-84
2022/08/18 02:37:46;;;;;;;5.88;5.38;;;17.50;99.90;;;;;;5104867;28;20492;-83
2022/08/18 02:40:16;;;;;;;9.75;5.63;;;17.40;99.90;;;;;;5088686;28;20043;-83
2022/08/18 02:42:45;;;;;;;6.13;5.13;;;17.40;99.90;;;;;;5096087;28;20504;-82
2022/08/18 02:45:14;;;;;;;6.50;4.65;;;17.30;99.90;;;;;;5098173;28;20048;-82
2022/08/18 02:47:41;;;;;;;6.15;5.45;;;17.30;99.90;;;;;;5105481;28;20051;-84
2022/08/18 02:50:12;;;;;;;4.65;4.18;;;17.30;99.90;;;;;;5103984;28;20058;-82
2022/08/18 02:52:40;;;;;;;6.38;5.78;;;17.20;99.90;;;;;;5087462;28;20051;-83
2022/08/18 02:55:08;;;;;;;4.53;4.13;;;17.20;99.90;;;;;;5093250;28;20859;-83
2022/08/18 02:57:42;;;;;;;6.68;5.28;;;17.20;99.90;;;;;;5086543;28;20048;-84
2022/08/18 03:00:15;;;;;;;5.78;5.18;;;17.10;99.90;;;;;;5050884;28;20048;-79
2022/08/18 03:02:50;;;;;;;6.72;5.43;;;17.10;99.90;;;;;;5107745;28;20040;-81
2022/08/18 03:05:19;;;;;;;9.07;4.82;;;17.10;99.90;;;;;;5072603;28;20457;-82
2022/08/18 03:07:46;;;;;;;5.78;4.38;;;17.10;99.90;;;;;;5076988;28;20044;-83
2022/08/18 03:10:15;;;;;;;5.70;4.63;;;17.10;99.90;;;;;;5069454;28;20412;-80
2022/08/18 03:13:00;;;;;;;8.35;4.95;;;17.10;99.90;;;;;;5110574;27;20840;-83
2022/08/18 03:15:35;;;;;;;9.05;5.65;;;17.10;99.90;;;;;;5106663;28;20040;-81
2022/08/18 03:18:02;;;;;;;4.65;3.90;;;17.10;99.90;;;;;;5114298;27;20400;-81
2022/08/18 03:20:32;;;;;;;6.03;3.65;;;17.00;99.90;;;;;;5107357;28;20040;-82
2022/08/18 03:23:02;;;;;;;6.80;4.60;;;17.00;99.90;;;;;;5077045;28;20044;-82
2022/08/18 03:25:43;;;;;;;5.80;4.18;;;16.90;99.90;;;;;;5071881;28;20048;-81
2022/08/18 03:28:11;;;;;;;5.32;4.82;;;16.90;99.90;;;;;;5105354;28;20803;-83
2022/08/18 03:30:39;;;;;;;5.00;4.32;;;16.90;99.90;;;;;;5065474;28;20158;-83
2022/08/18 03:33:07;;;;;;;7.47;3.83;;;16.90;99.90;;;;;;5067954;28;20748;-83
2022/08/18 03:35:36;;;;;;;4.80;3.88;;;16.90;99.90;;;;;;5082337;28;20516;-84
2022/08/18 03:38:04;;;;;;;5.15;4.65;;;16.90;99.90;;;;;;5079776;28;20071;-83
2022/08/18 03:40:37;;;;;;;6.88;4.45;;;16.90;99.90;;;;;;5102554;28;20493;-81
2022/08/18 03:43:15;;;;;;;7.60;3.90;;;16.80;99.90;;;;;;5070958;28;20044;-82
2022/08/18 03:46:05;;;;;;;8.27;4.40;;;16.70;99.90;;;;;;5070157;28;20208;-82
2022/08/18 03:48:33;;;;;;;7.43;4.17;;;16.70;99.90;;;;;;5100936;28;20059;-81
2022/08/18 03:51:10;;;;;;;4.00;3.70;;;16.60;99.90;;;;;;5085729;28;20511;-83
2022/08/18 03:53:38;;;;;;;4.65;4.25;;;16.50;99.90;;;;;;5086341;28;20047;-83
2022/08/18 03:56:14;;;;;;;5.25;3.95;;;16.50;99.90;;;;;;5103926;28;20055;-82
2022/08/18 03:58:48;;;;;;;5.03;4.25;;;16.50;99.90;;;;;;5063135;28;20839;-83
2022/08/18 04:01:19;;;;;;;5.43;4.35;;;16.50;99.90;;;;;;5081989;28;20048;-83
2022/08/18 04:04:02;;;;;;;6.68;3.70;;;16.50;99.90;;;;;;5068550;27;20051;-83
2022/08/18 04:06:40;;;;;;;6.35;5.65;;;16.50;99.90;;;;;;5057934;28;20040;-82
2022/08/18 04:09:11;;;;;;;4.10;3.70;;;16.40;99.90;;;;;;5084153;28;20052;-83
2022/08/18 04:11:44;;;;;;;4.78;4.35;;;16.40;99.90;;;;;;5067426;28;20051;-84
2022/08/18 04:14:16;;;;;;;4.72;4.20;;;16.40;99.90;;;;;;5073996;28;20048;-83
2022/08/18 04:16:44;;;;;;;5.90;4.18;;;16.40;99.90;;;;;;5097746;28;20420;-84
2022/08/18 04:19:13;;;;;;;6.70;4.32;;;16.40;99.90;;;;;;5065241;28;20052;-83
2022/08/18 04:21:55;;;;;;;8.73;4.68;;;16.40;99.90;;;;;;5100984;28;20043;-83
2022/08/18 04:24:25;;;;;;;8.55;4.63;;;16.40;99.90;;;;;;5087176;27;20058;-82
2022/08/18 04:26:55;;;;;;;;;;;16.30;99.90;;;;;;5077860;28;20052;-82
2022/08/18 04:29:23;;;;;;;4.25;3.72;;;16.30;99.90;;;;;;5075062;28;19930;-83
2022/08/18 04:37:31;;;;;;;4.78;4.32;;;16.30;99.90;;;;;;5072101;28;20043;-83
2022/08/18 04:39:59;;;;;;;;;;;16.30;99.90;;;;;;5075577;28;20048;-83
2022/08/18 04:42:27;;;;;;;6.78;4.40;;;16.50;99.90;;;;;;5076181;28;20268;-82
2022/08/18 04:45:06;;;;;;;3.65;3.13;;;16.50;99.90;;;;;;5088643;28;20047;-83
2022/08/18 04:47:34;;;;;;;4.70;4.13;;;16.50;99.90;;;;;;5059223;28;20493;-83
2022/08/18 04:50:03;;;;;;;8.35;5.13;;;16.60;99.90;;;;;;5085039;28;20047;-84
2022/08/18 04:55:17;;;;;;;7.43;4.38;;;16.70;99.90;;;;;;5040735;28;20052;-84
2022/08/18 04:57:45;;;;;;;4.32;3.92;;;16.70;99.90;;;;;;5083551;28;20039;-84
2022/08/18 05:00:13;;;;;;;5.95;4.45;;;16.70;99.90;;;;;;5064777;28;20056;-83
2022/08/18 05:02:41;;;;;;;4.55;4.15;;;16.70;99.90;;;;;;5104095;28;20051;-83
2022/08/18 05:05:09;;;;;;;6.13;5.55;;;16.80;99.90;;;;;;5082528;28;20048;-82
2022/08/18 05:07:43;;;;;;;5.70;4.43;;;16.80;99.90;;;;;;5089552;28;20048;-82
2022/08/18 05:10:12;;;;;;;6.72;4.07;;;16.80;99.90;;;;;;5101777;28;20409;-82
2022/08/18 05:12:41;;;;;;;5.25;4.72;;;16.90;99.90;;;;;;5108100;28;20055;-82
2022/08/18 05:15:09;;;;;;;5.72;5.13;;;16.90;99.90;;;;;;5104382;28;20044;-81
2022/08/18 05:17:38;;;;;;;6.32;4.65;;;16.80;99.90;;;;;;5112600;27;20043;-81
2022/08/18 05:20:08;;;;;;;6.75;4.78;;;16.90;99.90;;;;;;5089324;28;20047;-81
2022/08/18 05:22:38;;;;;;;5.47;4.97;;;16.90;99.90;;;;;;5091261;28;20476;-80
2022/08/18 05:25:09;;;;;;;4.57;3.55;;;17.00;99.90;;;;;;5070665;28;20047;-81
2022/08/18 05:27:40;;;;;;;6.65;5.03;;;17.00;99.90;;;;;;5080787;28;20040;-81
2022/08/18 05:30:09;;;;;;;5.30;4.43;;;17.00;99.90;;;;;;5082919;28;20523;-81
2022/08/18 05:32:43;;;;;;;4.97;3.60;;;17.10;99.90;;;;;;5067807;28;20048;-79
2022/08/18 05:35:23;;;;;;;10.73;5.28;;;17.00;99.90;;;;;;5092081;28;20035;-81
2022/08/18 05:37:57;;;;;;;5.30;4.80;;;17.00;99.90;;;;;;5083002;28;20062;-79
2022/08/18 05:40:25;;;;;;;5.50;4.70;;;17.00;99.90;;;;;;5089174;28;20479;-80
2022/08/18 05:42:56;;;;;;;6.93;4.72;;;17.10;99.90;;;;;;5083409;28;20058;-81
2022/08/18 05:45:25;;;;;;;14.70;5.32;;;17.10;99.90;;;;;;5101975;28;20535;-81
2022/08/18 05:48:14;;;;;;;5.57;4.57;;;17.30;99.90;;;;;;5105050;28;20054;-86
2022/08/18 06:10:29;;;;;;;8.40;5.70;;;17.90;99.90;;;;;;4840181;29;20564;-84
2022/08/18 06:13:25;;;;;;;8.13;4.80;;;18.00;99.90;;;;;;4868130;29;20056;-84
2022/08/18 06:17:07;;;;;;;5.38;4.93;;;18.10;99.90;;;;;;4967255;28;20203;-85
2022/08/18 06:21:17;;;;;;;6.10;4.75;;;18.10;99.90;;;;;;4978753;28;20050;-87
2022/08/18 06:24:19;;;;;;;5.88;4.65;;;18.10;99.90;;;;;;5030445;28;20532;-86
2022/08/18 06:27:21;;;;;;;5.68;5.15;;;18.20;99.90;;;;;;5071733;28;20500;-87
2022/08/18 06:30:56;;;;;;;5.53;5.03;;;18.20;99.90;;;;;;5068974;28;20634;-85
2022/08/18 06:34:41;;;;;;;4.72;4.32;;;18.30;99.90;;;;;;5056794;28;20047;-87
2022/08/18 06:37:30;;;;;;;4.30;3.83;;;18.40;99.90;;;;;;5021417;28;20164;-88
2022/08/18 06:40:12;;;;;;;4.55;3.47;;;18.50;99.90;;;;;;5054042;28;20362;-87
2022/08/18 06:43:31;;;;;;;4.95;3.90;;;18.60;99.90;;;;;;5058870;28;20047;-86
2022/08/18 06:46:21;;;;;;;7.93;5.90;;;18.50;99.90;;;;;;5063766;28;20508;-87
2022/08/18 06:49:03;;;;;;;9.95;5.85;;;18.50;99.90;;;;;;5087695;28;20036;-86
2022/08/18 06:51:50;;;;;;;5.28;3.97;;;18.50;99.90;;;;;;5041819;28;20048;-86
2022/08/18 06:54:18;;;;;;;4.97;3.75;;;18.60;99.90;;;;;;5068911;28;20056;-87
2022/08/18 06:56:53;;;;;;;4.43;4.03;;;18.60;99.90;;;;;;5044407;28;20521;-86
2022/08/18 06:59:28;;;;;;;5.50;4.57;;;18.60;99.90;;;;;;5067445;28;20063;-86
2022/08/18 07:02:29;;;;;;;4.38;3.97;;;18.60;99.90;;;;;;5085613;28;20413;-86
2022/08/18 07:05:06;;;;;;;6.32;4.85;;;18.60;99.90;;;;;;5082549;28;20055;-87
2022/08/18 07:08:10;;;;;;;9.25;5.63;;;18.50;99.90;;;;;;5077428;28;20044;-87
2022/08/18 07:10:44;;;;;;;4.93;4.38;;;18.60;99.90;;;;;;5085228;28;20040;-87
2022/08/18 07:13:12;;;;;;;5.93;4.30;;;18.60;99.90;;;;;;5074139;28;20032;-88
2022/08/18 07:15:40;;;;;;;5.63;4.43;;;18.70;99.90;;;;;;5044498;28;20048;-88
2022/08/18 07:18:08;;;;;;;17.05;5.10;;;18.80;99.90;;;;;;5067059;28;20055;-89
2022/08/18 07:20:52;;;;;;;6.50;4.15;;;18.90;99.90;;;;;;5079972;28;20044;-88
2022/08/18 07:23:27;;;;;;;5.43;4.35;;;19.10;99.90;;;;;;5054507;28;20047;-87
2022/08/18 07:26:07;;;;;;;15.43;5.38;;;19.20;99.90;;;;;;5064549;28;20059;-88
2022/08/18 07:28:43;;;;;;;4.38;3.97;;;19.30;99.90;;;;;;5081066;28;20044;-87
2022/08/18 07:31:35;;;;;;;5.05;4.65;;;19.30;99.90;;;;;;5048292;28;20044;-87
2022/08/18 07:34:27;;;;;;;4.90;4.05;;;19.30;99.90;;;;;;5070192;28;20044;-87
2022/08/18 07:37:28;;;;;;;4.65;4.10;;;19.30;99.90;;;;;;5072894;28;20056;-88
2022/08/18 07:40:06;;;;;;;4.13;3.70;;;19.30;99.90;;;;;;5056353;28;20063;-88
2022/08/18 07:43:00;;;;;;;6.57;5.03;;;19.50;99.90;;;;;;5041883;28;20051;-88
2022/08/18 07:45:44;;;;;;;4.35;3.70;;;19.50;99.90;;;;;;5038512;28;20066;-88
2022/08/18 07:48:21;;;;;;;4.95;3.78;;;19.50;99.90;;;;;;5086690;28;20051;-89
2022/08/18 07:51:24;;;;;;;4.47;3.97;;;19.50;99.90;;;;;;5055648;28;20067;-88
2022/08/18 07:54:12;;;;;;;4.35;3.95;;;19.60;99.90;;;;;;5075702;28;20416;-88
2022/08/18 07:57:03;;;;;;;5.80;4.32;;;19.70;99.90;;;;;;5060123;28;20072;-89
2022/08/18 07:59:35;;;;;;;5.68;4.45;;;19.70;99.90;;;;;;5072628;28;20052;-86
2022/08/18 08:02:42;;;;;;;6.53;4.53;;;19.70;99.90;;;;;;5090828;28;20043;-88
2022/08/18 08:06:08;;;;;;;7.75;4.35;;;19.70;99.90;;;;;;5063396;28;20060;-88
2022/08/18 08:09:12;;;;;;;4.40;3.53;;;19.90;99.90;;;;;;5007362;28;20061;-88
2022/08/18 08:12:24;;;;;;;10.18;4.63;;;19.90;99.90;;;;;;5069183;28;20489;-88
2022/08/18 08:15:43;;;;;;;4.45;3.80;;;20.10;99.90;;;;;;5082119;28;20054;-87
2022/08/18 08:18:50;;;;;;;11.25;4.65;;;20.00;99.90;;;;;;5026517;28;20055;-88
2022/08/18 08:21:24;;;;;;;7.88;5.30;;;20.10;99.90;;;;;;5069387;28;20044;-88
2022/08/18 08:24:01;;;;;;;4.75;4.18;;;20.30;99.90;;;;;;5088879;28;20396;-89
2022/08/18 08:27:04;;;;;;;6.72;3.75;;;20.40;99.90;;;;;;5055778;28;20039;-86
2022/08/18 08:30:12;;;;;;;5.28;4.78;;;20.70;99.90;;;;;;5046715;28;20048;-87
2022/08/18 08:33:02;;;;;;;6.13;4.88;;;20.60;99.90;;;;;;5059109;28;20059;-87
2022/08/18 08:35:46;;;;;;;4.82;4.00;;;20.70;99.90;;;;;;5026838;28;20036;-89
2022/08/18 08:38:41;;;;;;;5.82;5.10;;;20.80;99.90;;;;;;5067384;28;20048;-87
2022/08/18 08:41:26;;;;;;;6.03;5.15;;;20.80;99.90;;;;;;5064282;28;20044;-85
2022/08/18 08:44:00;;;;;;;6.30;4.85;;;20.70;99.90;;;;;;5067207;28;20048;-89
2022/08/18 08:46:46;;;;;;;5.63;5.10;;;20.70;99.90;;;;;;5047023;28;20051;-89
2022/08/18 08:49:26;;;;;;;5.93;5.07;;;21.00;99.90;;;;;;5045815;28;20040;-87
2022/08/18 08:52:01;;;;;;;6.45;5.10;;;21.10;99.90;;;;;;5058882;28;20040;-88
2022/08/18 08:54:55;;;;;;;5.60;4.38;;;21.10;99.90;;;;;;5071893;28;20405;-88
2022/08/18 08:57:34;;;;;;;4.97;4.18;;;21.10;99.90;;;;;;5072716;28;20059;-88
2022/08/18 09:00:07;;;;;;;6.00;5.45;;;21.00;99.90;;;;;;5075103;28;20047;-88
2022/08/18 09:02:52;;;;;;;4.78;4.10;;;20.90;99.90;;;;;;5056779;28;20380;-87
2022/08/18 09:05:24;;;;;;;5.78;4.38;;;21.00;99.90;;;;;;5082469;28;20044;-88
2022/08/18 09:08:21;;;;;;;5.03;4.53;;;21.20;99.90;;;;;;5054465;28;20052;-87
2022/08/18 09:11:04;;;;;;;5.03;4.47;;;21.40;99.90;;;;;;5051422;28;20055;-90
2022/08/18 09:14:15;;;;;;;6.97;5.75;;;21.40;99.90;;;;;;5049075;28;20043;-88
2022/08/18 09:16:46;;;;;;;;;;;21.50;99.90;;;;;;5049124;28;20043;-86
2022/08/18 09:19:31;;;;;;;5.50;5.00;;;21.60;99.90;;;;;;5064246;28;19930;-86
2022/08/18 09:22:24;;;;;;;6.38;4.75;;;21.70;99.90;;;;;;5076345;28;20054;-87
2022/08/18 09:24:55;;;;;;;6.93;6.22;;;21.70;99.90;;;;;;5063428;28;20059;-88
2022/08/18 09:27:45;;;;;;;4.85;4.10;;;21.80;99.90;;;;;;5058744;28;20078;-89
2022/08/18 09:30:44;;;;;;;5.05;4.47;;;21.80;99.90;;;;;;5058471;28;20045;-90
2022/08/18 09:33:48;;;;;;;6.65;4.30;;;21.90;99.90;;;;;;5045443;28;20045;-90
2022/08/18 09:36:44;;;;;;;8.57;5.03;;;22.40;99.90;;;;;;5045157;28;20059;-88
2022/08/18 09:42:53;;;;;;;9.52;5.38;;;22.50;99.90;;;;;;5072043;28;20044;-90
2022/08/18 09:46:05;;;;;;;5.20;4.38;;;22.60;99.90;;;;;;5056875;28;20044;-89
2022/08/18 09:48:39;;;;;;;3.97;3.67;;;22.70;99.90;;;;;;5061942;28;20048;-91
2022/08/18 09:51:36;;;;;;;4.32;3.60;;;22.70;99.90;;;;;;5046618;28;20055;-89
2022/08/18 09:54:17;;;;;;;4.10;3.78;;;22.90;99.90;;;;;;5052904;28;20045;-90
2022/08/18 09:56:52;;;;;;;6.28;4.25;;;22.90;99.90;;;;;;5083071;28;20049;-89
2022/08/18 09:59:31;;;;;;;5.50;4.03;;;22.90;99.90;;;;;;5063437;28;20053;-89
2022/08/18 10:02:13;;;;;;;4.03;3.60;;;23.00;99.90;;;;;;5057698;28;20047;-86
2022/08/18 10:05:11;;;;;;;5.65;5.05;;;23.10;99.90;;;;;;5078232;28;20048;-85
2022/08/18 10:08:01;;;;;;;6.45;5.30;;;23.30;99.90;;;;;;5035252;28;20056;-89
2022/08/18 10:10:38;;;;;;;4.70;4.30;;;23.50;99.90;;;;;;5039840;28;20036;-87
2022/08/18 10:14:31;;;;;;;5.63;5.13;;;23.70;99.90;;;;;;5072091;28;20044;-88
2022/08/18 10:17:36;;;;;;;11.80;5.85;;;23.60;99.90;;;;;;5029378;28;20065;-87
2022/08/18 10:20:33;;;;;;;5.20;4.70;;;23.20;99.90;;;;;;5064541;28;20049;-87
2022/08/18 10:23:04;;;;;;;5.07;4.57;;;23.40;99.90;;;;;;5058175;28;20378;-90
2022/08/18 10:25:38;;;;;;;4.97;4.60;;;23.50;99.90;;;;;;5053513;28;20385;-90
2022/08/18 10:28:33;;;;;;;6.07;5.50;;;23.50;99.90;;;;;;5063598;28;20051;-88
2022/08/18 10:31:07;;;;;;;4.93;3.88;;;23.30;99.90;;;;;;5051216;28;20040;-90
2022/08/18 10:34:14;;;;;;;5.85;4.93;;;23.30;99.90;;;;;;5056154;28;20371;-89
2022/08/18 10:37:37;;;;;;;4.27;3.93;;;23.30;99.90;;;;;;5047257;28;20040;-90
2022/08/18 10:40:17;;;;;;;5.05;4.13;;;23.20;99.90;;;;;;5037888;28;20059;-90
2022/08/18 10:43:20;;;;;;;6.13;5.53;;;23.20;99.90;;;;;;5035355;28;20044;-90
2022/08/18 10:46:36;;;;;;;5.63;5.07;;;23.20;99.90;;;;;;5043520;28;20053;-87
2022/08/18 10:49:24;;;;;;;5.68;5.07;;;23.50;99.90;;;;;;5025284;28;20032;-83
2022/08/18 10:52:00;;;;;;;5.13;4.45;;;23.60;99.90;;;;;;5074969;28;20041;-83
2022/08/18 10:55:11;;;;;;;4.80;4.32;;;23.60;99.90;;;;;;5058619;28;20045;-83
2022/08/18 10:57:59;;;;;;;6.03;5.47;;;23.80;99.90;;;;;;5077135;28;20402;-90
2022/08/18 11:00:44;;;;;;;5.80;5.20;;;23.90;99.90;;;;;;5051573;28;20055;-90
2022/08/18 11:03:48;;;;;;;4.50;4.07;;;23.80;99.90;;;;;;5034510;28;20048;-86
2022/08/18 11:06:35;;;;;;;5.15;4.72;;;23.60;99.90;;;;;;5036983;28;20049;-87
2022/08/18 11:09:06;;;;;;;8.38;6.10;;;23.50;99.90;;;;;;5042900;28;20053;-86
2022/08/18 11:12:30;;;;;;;5.05;4.65;;;23.40;99.90;;;;;;5063449;28;20053;-87
2022/08/18 11:17:07;;;;;;;4.97;4.43;;;23.50;99.90;;;;;;5061253;28;20051;-89
2022/08/18 11:21:26;;;;;;;5.38;4.88;;;23.60;99.90;;;;;;5044623;28;20045;-87
2022/08/18 11:24:17;;;;;;;6.13;4.75;;;23.80;99.90;;;;;;5055681;28;20506;-85
2022/08/18 11:27:16;;;;;;;5.13;4.40;;;24.00;99.90;;;;;;5042253;28;20045;-87
2022/08/18 11:29:54;;;;;;;5.07;4.57;;;24.10;99.90;;;;;;5070418;28;20052;-87
2022/08/18 11:32:28;;;;;;;5.22;4.40;;;24.20;99.90;;;;;;5060590;28;20056;-87
2022/08/18 11:35:01;;;;;;;5.20;4.80;;;24.30;99.90;;;;;;5041180;28;20405;-86
2022/08/18 11:38:18;;;;;;;5.03;4.63;;;24.40;99.90;;;;;;5034094;28;20076;-88
2022/08/18 11:45:03;;;;;;;8.07;4.82;;;24.30;99.90;;;;;;5032619;28;20052;-83
2022/08/18 11:47:32;;;;;;;4.30;3.90;;;24.30;99.90;;;;;;5060345;28;20056;-88
2022/08/18 11:50:58;;;;;;;5.65;4.68;;;24.40;99.90;;;;;;5012172;28;20791;-88
2022/08/18 11:53:48;;;;;;;15.50;3.90;;;24.50;99.90;;;;;;5047524;28;20055;-91
2022/08/18 11:56:33;;;;;;;9.88;4.65;;;24.60;99.90;;;;;;5024825;28;20060;-90
2022/08/18 11:59:24;;;;;;;4.70;4.30;;;24.50;99.90;;;;;;5034115;28;20052;-87
2022/08/18 12:02:17;;;;;;;6.55;5.97;;;24.50;99.90;;;;;;5022100;28;20397;-90
2022/08/18 12:04:51;;;;;;;9.48;5.18;;;24.60;99.90;;;;;;5053155;28;20060;-91
2022/08/18 12:07:32;;;;;;;5.15;4.65;;;24.70;99.90;;;;;;5043503;28;20417;-89
2022/08/18 12:10:23;;;;;;;5.35;4.85;;;24.70;99.90;;;;;;5052724;28;20055;-91
2022/08/18 12:13:06;;;;;;;10.82;5.00;;;24.70;99.90;;;;;;5045581;28;20044;-89
2022/08/18 12:16:31;;;;;;;4.65;3.63;;;24.50;99.90;;;;;;5041653;28;20053;-87
2022/08/18 12:19:59;;;;;;;;;;;;;;;;;;;;;
2022/08/18 12:23:21;;;;;;;5.07;4.68;;;24.60;99.90;;;;;;5065512;28;20048;-89
2022/08/18 12:26:22;;;;;;;5.22;4.72;;;24.80;99.90;;;;;;5078016;28;20433;-92
2022/08/18 12:29:08;;;;;;;6.18;4.78;;;24.90;99.90;;;;;;5050044;28;20048;-87
2022/08/18 12:31:38;;;;;;;5.07;4.60;;;24.90;99.90;;;;;;5089447;28;20079;-91
2022/08/18 12:34:32;;;;;;;5.18;4.68;;;25.00;99.90;;;;;;5041771;28;20083;-89
2022/08/18 12:37:19;;;;;;;4.85;4.32;;;24.90;99.90;;;;;;5067517;28;20474;-89
2022/08/18 12:40:16;;;;;;;5.95;5.18;;;24.90;99.90;;;;;;5022000;28;20063;-89
2022/08/18 12:47:47;;;;;;;9.88;6.43;;;24.90;99.90;;;;;;5021097;28;20041;-86
2022/08/18 12:50:51;;;;;;;10.07;5.75;;;25.00;99.90;;;;;;5054564;28;20041;-88
2022/08/18 12:53:52;;;;;;;5.82;4.72;;;25.10;99.90;;;;;;4970819;28;20046;-86
2022/08/18 12:56:41;;;;;;;5.13;4.72;;;25.20;99.90;;;;;;4968188;28;20054;-85
2022/08/18 13:00:14;;;;;;;8.23;5.63;;;25.20;99.90;;;;;;5005987;28;20185;-86
2022/08/18 13:04:02;;;;;;;5.28;4.78;;;25.20;99.90;;;;;;4934383;29;20082;-85
2022/08/18 13:07:11;;;;;;;;;;;25.10;99.90;;;;;;4914626;28;20051;-86
2022/08/18 13:10:00;;;;;;;5.50;5.00;;;25.20;99.90;;;;;;4939155;29;19922;-91
2022/08/18 13:12:32;;;;;;;5.55;5.05;;;25.20;99.90;;;;;;4934596;29;20067;-89
2022/08/18 13:15:09;;;;;;;6.97;5.03;;;25.00;99.90;;;;;;5013707;28;20080;-90
2022/08/18 13:22:28;;;;;;;6.32;5.28;;;24.70;99.90;;;;;;5025843;28;20049;-90
2022/08/18 13:25:46;;;;;;;7.65;5.43;;;24.70;99.90;;;;;;5005229;28;20061;-87
2022/08/18 13:29:38;;;;;;;7.22;6.43;;;24.60;99.90;;;;;;5062899;28;20052;-88
2022/08/18 13:32:27;;;;;;;9.35;6.07;;;24.60;99.90;;;;;;5037089;28;20625;-87
2022/08/18 13:39:46;;;;;;;4.90;4.50;;;24.50;99.90;;;;;;5083924;28;20058;-88
2022/08/18 13:44:14;;;;;;;6.47;5.35;;;24.40;99.90;;;;;;4915856;29;20059;-86
2022/08/18 13:48:07;;;;;;;7.43;5.43;;;24.40;99.90;;;;;;4907974;29;20048;-86
2022/08/18 13:52:01;;;;;;;5.50;4.97;;;24.30;99.90;;;;;;4820692;29;20404;-87
2022/08/18 13:56:00;;;;;;;5.65;5.15;;;24.30;99.90;;;;;;4867471;29;20051;-87
2022/08/18 13:59:41;;;;;;;10.48;5.85;;;24.30;99.90;;;;;;4888583;29;20093;-87
2022/08/18 14:03:32;;;;;;;;;;;;;;;;;;;;;
2022/08/18 14:12:47;;;;;;;;;;;;;;;;;;;;;
2022/08/18 14:27:37;;;;;;;7.55;5.68;;;24.70;99.90;;;;;;4943346;28;20531;-91
2022/08/18 14:35:53;;;;;;;5.82;4.97;;;24.80;99.90;;;;;;4933319;28;20039;-89
2022/08/18 14:38:40;;;;;;;6.18;5.50;;;24.70;99.90;;;;;;4975974;28;20050;-90
2022/08/18 14:41:13;;;;;;;10.18;5.55;;;24.70;99.90;;;;;;4957743;28;20060;-86
2022/08/18 14:49:26;;;;;;;7.65;5.95;;;24.70;99.90;;;;;;5056450;28;20509;-88
2022/08/18 14:56:49;;;;;;;8.43;5.47;;;24.90;99.90;;;;;;4937751;28;20540;-89
2022/08/18 14:59:22;;;;;;;6.47;5.68;;;24.80;99.90;;;;;;4961437;28;20050;-89
2022/08/18 15:01:53;;;;;;;8.05;6.47;;;24.70;99.90;;;;;;4954124;28;20053;-91
2022/08/18 15:04:22;;;;;;;6.90;6.30;;;24.60;99.90;;;;;;4979637;28;20061;-92
2022/08/18 15:06:56;;;;;;;7.75;7.05;;;24.60;99.90;;;;;;4915809;28;20058;-91
2022/08/18 15:09:36;;;;;;;9.63;7.97;;;24.40;99.90;;;;;;4927075;29;20039;-88
2022/08/18 15:12:10;;;;;;;;;;;24.30;99.90;;;;;;4921284;28;20074;-87
2022/08/18 15:15:51;;;;;;;6.75;6.15;;;24.20;99.90;;;;;;4921033;29;19922;-92
2022/08/18 15:18:32;;;;;;;11.13;7.45;;;24.20;99.90;;;;;;4939989;29;20047;-91
2022/08/18 15:27:15;;;;;;;;;;;;;;;;;;;;;
2022/08/18 15:30:04;;;;;;;9.38;6.50;;;24.20;99.90;;;;;;4970535;28;20489;-90
2022/08/18 15:32:52;;;;;;;9.50;5.90;;;24.20;99.90;;;;;;5008114;28;20045;-88
2022/08/18 15:35:27;;;;;;;12.23;6.70;;;24.20;99.90;;;;;;4977582;28;20057;-90
2022/08/18 15:38:07;;;;;;;9.55;8.68;;;24.10;99.90;;;;;;4996184;28;20041;-91
2022/08/18 15:41:24;;;;;;;6.72;5.93;;;24.10;99.90;;;;;;5003439;28;20045;-87
2022/08/18 15:44:33;;;;;;;6.75;6.05;;;23.90;99.90;;;;;;4970558;28;20053;-89
2022/08/18 15:47:03;;;;;;;7.63;6.30;;;24.00;99.90;;;;;;4990528;28;20053;-88
2022/08/18 15:49:32;;;;;;;11.38;7.13;;;24.00;99.90;;;;;;5004241;28;20045;-89
2022/08/18 15:52:03;;;;;;;8.55;6.47;;;24.00;99.90;;;;;;5006743;28;20041;-88
2022/08/18 15:54:40;;;;;;;28.27;6.75;;;24.00;99.90;;;;;;4994049;28;20044;-89
2022/08/18 15:57:12;;;;;;;8.05;5.50;;;24.00;99.90;;;;;;4991418;28;20063;-88
2022/08/18 16:00:01;;;;;;;;;;;24.00;99.90;;;;;;5064328;28;20516;-88
2022/08/18 16:02:40;;;;;;;12.90;7.10;;;24.00;99.90;;;;;;5080805;28;19924;-86